Bogota, Colombia
Current Conditions -  °F | °C
As of 3:00 AM on Sunday 21 Dec 2014 (Local Time) from SKBO Reporting Station
Broken Clouds Broken Clouds  
Wind Chill: 12°   Ceiling: 1500
Heat Index: 12°   Visibility: 5mi
Dew Point: 10°   Wind: 2mph
Humidity: 88%   Direction: NA
Pressure: 30.26"   Gusts: NA
Location:  4.63°N, 74.09°W
Report Text: SKBO 210800Z VRB02KT 8000 BKN015 12/10 A3026 RMK HZ
Loading
Personal Weather Stations






























Interactive Weather Map New forecast layout! Learn more

10-Day Weather Forecast

Advertisements
Track Severe Weather on mobile